Time;durP1;ratioP1;P1;durP2;ratioP2;P2;SDS_P1;SDS_P2;PMS_P1;PMS_P2;Temp;Humidity;BMP_temperature;BMP_pressure;BME280_temperature;BME280_humidity;BME280_pressure;Samples;Min_cycle;Max_cycle;Signal;HPM_P1;HPM_P2
2021/12/07 02:00:45;;;;;;;5.03;2.00;;;;;;;12.16;nan;102333.25;4631084;31;20458;-86
2021/12/07 02:03:27;;;;;;;7.87;2.37;;;;;;;12.17;nan;102340.44;4617723;31;20513;-87
2021/12/07 02:06:10;;;;;;;4.60;2.57;;;;;;;12.17;nan;102334.09;4619122;31;20534;-86
2021/12/07 02:08:51;;;;;;;10.27;2.27;;;;;;;12.17;nan;102334.09;4631756;30;20475;-87
2021/12/07 02:11:33;;;;;;;11.03;2.90;;;;;;;12.15;nan;102331.53;4658679;30;20502;-87
2021/12/07 02:14:14;;;;;;;4.40;2.47;;;;;;;12.15;nan;102326.03;4702878;30;20488;-87
2021/12/07 02:16:50;;;;;;;6.97;2.30;;;;;;;12.15;nan;102336.16;4692317;30;20970;-87
2021/12/07 02:19:17;;;;;;;4.67;2.97;;;;;;;12.17;nan;102337.72;4701239;30;20464;-88
2021/12/07 02:21:45;;;;;;;6.50;3.60;;;;;;;12.09;nan;102333.06;4786115;29;20462;-88
2021/12/07 02:24:19;;;;;;;4.10;2.97;;;;;;;12.06;nan;102343.50;4806577;29;20462;-87
2021/12/07 02:26:47;;;;;;;5.87;3.07;;;;;;;12.03;nan;102332.84;4791981;29;20465;-88
2021/12/07 02:29:15;;;;;;;7.70;2.87;;;;;;;12.03;nan;102349.31;4776537;29;20458;-88
2021/12/07 02:31:43;;;;;;;5.77;2.97;;;;;;;11.99;nan;102337.81;4761868;29;20845;-87
2021/12/07 02:34:11;;;;;;;4.13;2.40;;;;;;;11.98;nan;102330.59;4791874;29;20510;-88
2021/12/07 02:36:39;;;;;;;3.57;2.07;;;;;;;11.99;nan;102331.47;4791722;29;20458;-87
2021/12/07 02:39:11;;;;;;;7.10;3.00;;;;;;;11.98;nan;102338.81;4788072;30;20459;-88
2021/12/07 02:41:39;;;;;;;6.50;3.80;;;;;;;11.96;nan;102337.25;4773733;30;20462;-87
2021/12/07 02:44:07;;;;;;;12.90;3.27;;;;;;;11.88;nan;102326.28;4789909;29;20491;-87
2021/12/07 02:46:35;;;;;;;4.87;2.70;;;;;;;11.86;nan;102326.44;4777207;29;20458;-87
2021/12/07 02:49:04;;;;;;;5.93;2.70;;;;;;;11.88;nan;102321.66;4761793;29;20473;-87
2021/12/07 02:59:54;;;;;;;9.30;4.27;;;;;;;11.60;nan;102307.25;4724726;30;20961;-87
2021/12/07 03:03:01;;;;;;;8.43;4.23;;;;;;;11.66;nan;102324.94;4734075;30;20476;-87
2021/12/07 03:06:00;;;;;;;39.70;22.40;;;;;;;11.62;nan;102321.66;4723303;30;20512;-85
2021/12/07 03:09:10;;;;;;;46.97;23.90;;;;;;;11.56;nan;102311.34;4664521;30;20449;-87
2021/12/07 03:26:46;;;;;;;6.80;3.60;;;;;;;11.35;nan;102305.41;4664566;30;20483;-87
2021/12/07 03:29:30;;;;;;;5.50;2.13;;;;;;;11.45;nan;102314.34;4652402;30;20449;-87
2021/12/07 03:31:58;;;;;;;2.80;2.03;;;;;;;11.53;nan;102306.22;4636008;30;20504;-87
2021/12/07 03:34:26;;;;;;;5.53;2.40;;;;;;;11.57;nan;102296.63;4650667;30;20527;-87
2021/12/07 03:36:53;;;;;;;3.17;1.93;;;;;;;11.67;nan;102302.00;4690150;30;20470;-86
2021/12/07 03:39:21;;;;;;;6.77;2.67;;;;;;;11.74;nan;102306.66;4718717;30;20462;-87
2021/12/07 03:41:51;;;;;;;3.87;2.07;;;;;;;11.76;nan;102301.91;4733553;30;20989;-84
2021/12/07 03:44:18;;;;;;;3.47;2.30;;;;;;;11.80;nan;102299.69;4715489;30;20508;-88
2021/12/07 03:46:46;;;;;;;2.20;1.53;;;;;;;11.85;nan;102305.56;4746111;30;20948;-87
2021/12/07 03:49:13;;;;;;;5.63;3.30;;;;;;;11.86;nan;102301.78;4783635;29;20458;-88
2021/12/07 03:51:41;;;;;;;3.53;1.77;;;;;;;11.90;nan;102299.59;4751464;29;20497;-88
2021/12/07 03:54:14;;;;;;;3.13;2.10;;;;;;;11.91;nan;102296.69;4776182;29;20518;-85
2021/12/07 03:56:44;;;;;;;3.00;2.10;;;;;;;12.01;nan;102305.63;4775560;29;20468;-85
2021/12/07 03:59:12;;;;;;;2.53;1.80;;;;;;;12.03;nan;102308.19;4804226;29;20458;-88
2021/12/07 04:01:39;;;;;;;4.43;2.33;;;;;;;12.03;nan;102299.97;4789373;29;20462;-88
2021/12/07 04:04:07;;;;;;;3.10;2.30;;;;;;;12.05;nan;102298.78;4760822;29;20473;-87
2021/12/07 04:06:35;;;;;;;4.20;2.10;;;;;;;12.07;nan;102295.88;4761351;29;20956;-86
2021/12/07 04:09:03;;;;;;;3.77;2.60;;;;;;;12.10;nan;102299.16;4774945;29;20455;-86
2021/12/07 04:11:31;;;;;;;5.13;1.97;;;;;;;12.08;nan;102287.50;4760401;29;20496;-85
2021/12/07 04:13:59;;;;;;;2.40;1.90;;;;;;;12.17;nan;102302.06;4805017;29;20458;-85
2021/12/07 04:16:27;;;;;;;3.90;2.17;;;;;;;12.17;nan;102287.50;4790353;29;20550;-87
2021/12/07 04:18:54;;;;;;;11.67;2.50;;;;;;;12.20;nan;102288.03;4784565;29;20522;-87
2021/12/07 04:21:22;;;;;;;4.37;2.13;;;;;;;12.20;nan;102293.53;4774751;29;20453;-87
2021/12/07 04:23:49;;;;;;;4.10;2.10;;;;;;;12.24;nan;102292.19;4804717;29;20450;-86
2021/12/07 04:26:17;;;;;;;3.67;2.30;;;;;;;12.27;nan;102294.59;4790179;29;20462;-86
2021/12/07 04:28:45;;;;;;;4.67;2.37;;;;;;;12.29;nan;102289.81;4789491;29;20466;-87
2021/12/07 04:31:14;;;;;;;3.57;2.20;;;;;;;12.32;nan;102300.41;4775044;29;20482;-87
2021/12/07 04:33:42;;;;;;;3.23;1.90;;;;;;;12.32;nan;102292.19;4760502;29;20458;-86
2021/12/07 04:36:10;;;;;;;4.07;1.60;;;;;;;12.38;nan;102299.75;4760466;29;20458;-87
2021/12/07 04:38:37;;;;;;;2.37;1.63;;;;;;;12.39;nan;102301.47;4789467;29;20793;-86
2021/12/07 04:41:06;;;;;;;3.07;1.70;;;;;;;12.39;nan;102295.97;4760381;29;20465;-87
2021/12/07 04:43:34;;;;;;;2.60;1.70;;;;;;;12.45;nan;102298.06;4760205;29;20462;-87
2021/12/07 04:46:33;;;;;;;2.70;1.60;;;;;;;12.49;nan;102294.97;4761150;29;20881;-85
2021/12/07 04:59:43;;;;;;;2.00;1.70;;;;;;;12.50;nan;102280.25;4778928;29;20522;-86
2021/12/07 05:02:11;;;;;;;6.70;1.90;;;;;;;12.49;nan;102279.38;4775510;29;20945;-86
2021/12/07 05:04:41;;;;;;;3.90;1.90;;;;;;;12.52;nan;102289.13;4761250;29;20454;-86
2021/12/07 05:07:15;;;;;;;3.30;1.60;;;;;;;12.51;nan;102280.06;4788938;29;20454;-86
2021/12/07 05:14:44;;;;;;;2.27;1.30;;;;;;;12.58;nan;102266.53;4792120;29;20453;-86
2021/12/07 05:38:34;;;;;;;;;;;;;;;;;;;;;
2021/12/07 06:02:16;;;;;;;2.13;0.90;;;;;;;12.57;nan;102242.88;4654266;30;20537;-87
2021/12/07 06:16:20;;;;;;;;;;;;;;;;;;;;;
2021/12/07 06:24:05;;;;;;;;;;;;;;;;;;;;;
2021/12/07 06:46:50;;;;;;;;;;;;;;;;;;;;;
2021/12/07 06:54:19;;;;;;;1.30;0.70;;;;;;;12.82;nan;102271.19;4548605;31;21045;-87
2021/12/07 07:20:59;;;;;;;;;;;;;;;;;;;;;
2021/12/07 09:58:23;;;;;;;1.13;0.60;;;;;;;15.12;nan;102334.06;4705252;30;20685;-88
2021/12/07 10:09:57;;;;;;;1.40;0.40;;;;;;;15.35;nan;102309.25;4663362;30;20927;-86
2021/12/07 11:50:03;;;;;;;10.10;5.33;;;;;;;16.74;nan;102222.84;4794236;29;20556;-85
2021/12/07 11:52:40;;;;;;;6.23;3.60;;;;;;;16.87;nan;102225.69;4777926;29;20482;-85
2021/12/07 11:55:09;;;;;;;3.60;2.00;;;;;;;16.99;nan;102213.03;4805285;29;20462;-85
2021/12/07 11:58:40;;;;;;;2.93;1.73;;;;;;;17.19;nan;102216.81;4805432;29;20458;-85
2021/12/07 12:01:08;;;;;;;4.43;2.17;;;;;;;17.47;nan;102229.78;4761667;30;20478;-89
2021/12/07 12:03:36;;;;;;;2.47;1.50;;;;;;;17.61;nan;102234.31;4753558;30;20845;-88
2021/12/07 12:06:05;;;;;;;5.40;3.40;;;;;;;17.74;nan;102226.13;4750174;30;20529;-84
2021/12/07 12:08:33;;;;;;;7.70;3.83;;;;;;;17.76;nan;102221.25;4743597;30;20455;-84
2021/12/07 12:11:05;;;;;;;8.73;4.00;;;;;;;17.77;nan;102216.56;4767699;30;20464;-83
2021/12/07 12:13:56;;;;;;;3.73;2.60;;;;;;;17.74;nan;102217.81;4753430;30;20453;-88
2021/12/07 12:16:38;;;;;;;3.20;1.97;;;;;;;17.67;nan;102211.44;4766106;30;20995;-83
2021/12/07 12:19:31;;;;;;;2.20;1.10;;;;;;;17.62;nan;102208.38;4749766;30;20977;-84
2021/12/07 12:22:06;;;;;;;1.70;0.63;;;;;;;17.63;nan;102201.78;4763762;30;20467;-84
2021/12/07 12:24:44;;;;;;;4.73;2.23;;;;;;;17.63;nan;102198.16;4740396;30;20451;-83
2021/12/07 12:27:16;;;;;;;6.83;4.07;;;;;;;17.58;nan;102193.25;4752395;30;20541;-83
2021/12/07 12:29:49;;;;;;;11.73;6.93;;;;;;;17.44;nan;102183.19;4767265;30;20464;-84
2021/12/07 12:32:36;;;;;;;6.40;4.60;;;;;;;17.32;nan;102187.59;4737941;30;20480;-83
2021/12/07 12:35:05;;;;;;;4.30;2.30;;;;;;;17.17;nan;102180.25;4767666;29;20451;-83
2021/12/07 12:37:34;;;;;;;3.73;1.93;;;;;;;17.09;nan;102180.41;4797260;29;20458;-83
2021/12/07 12:40:06;;;;;;;4.57;1.53;;;;;;;17.03;nan;102174.84;4789604;29;20454;-82
2021/12/07 12:42:52;;;;;;;3.67;1.63;;;;;;;17.16;nan;102175.78;4805650;29;20446;-83
2021/12/07 12:45:43;;;;;;;2.77;1.00;;;;;;;17.36;nan;102175.91;4789792;29;20454;-83
2021/12/07 12:48:18;;;;;;;3.00;0.80;;;;;;;17.41;nan;102161.47;4804622;29;20465;-82
2021/12/07 12:50:49;;;;;;;2.00;1.00;;;;;;;17.44;nan;102169.38;4789176;29;20569;-83
2021/12/07 12:53:37;;;;;;;1.80;0.80;;;;;;;17.56;nan;102168.56;4775067;29;20497;-82
2021/12/07 12:56:07;;;;;;;1.87;0.87;;;;;;;17.79;nan;102162.75;4789498;29;20465;-83
2021/12/07 12:58:44;;;;;;;1.80;0.70;;;;;;;18.02;nan;102159.66;4790277;29;20466;-83
2021/12/07 13:01:33;;;;;;;2.03;0.57;;;;;;;18.10;nan;102148.38;4770941;29;20465;-83
2021/12/07 13:04:16;;;;;;;1.00;0.30;;;;;;;18.10;nan;102141.97;4789490;29;20514;-83
2021/12/07 13:07:25;;;;;;;1.30;0.40;;;;;;;18.10;nan;102150.28;4789378;29;20974;-82
2021/12/07 13:10:00;;;;;;;1.10;0.60;;;;;;;18.04;nan;102142.84;4803408;29;20526;-82
2021/12/07 13:12:40;;;;;;;1.20;0.57;;;;;;;17.92;nan;102142.56;4789248;29;20496;-82
2021/12/07 13:15:09;;;;;;;1.53;0.77;;;;;;;17.77;nan;102134.44;4772397;30;20455;-82
2021/12/07 13:17:42;;;;;;;1.67;0.80;;;;;;;17.69;nan;102129.13;4771863;30;20455;-82
2021/12/07 13:20:31;;;;;;;1.43;0.50;;;;;;;17.78;nan;102125.09;4796646;29;20462;-83
2021/12/07 13:23:09;;;;;;;2.27;0.97;;;;;;;17.93;nan;102117.47;4797631;29;20873;-83
2021/12/07 13:25:41;;;;;;;1.30;0.50;;;;;;;17.87;nan;102107.25;4789294;29;20462;-83
2021/12/07 13:28:40;;;;;;;1.77;0.50;;;;;;;17.76;nan;102099.56;4803389;29;20469;-82
2021/12/07 13:31:52;;;;;;;1.00;0.50;;;;;;;17.66;nan;102110.16;4736381;30;20485;-83
2021/12/07 13:34:30;;;;;;;3.97;2.47;;;;;;;17.50;nan;102104.97;4714995;30;20459;-83
2021/12/07 13:37:02;;;;;;;3.37;1.90;;;;;;;17.47;nan;102109.00;4703175;30;20828;-83
2021/12/07 13:39:35;;;;;;;4.07;1.07;;;;;;;17.39;nan;102105.53;4725883;30;20494;-82
2021/12/07 13:42:18;;;;;;;1.60;1.17;;;;;;;17.39;nan;102102.78;4712329;30;20430;-83
2021/12/07 13:45:07;;;;;;;2.90;0.90;;;;;;;17.50;nan;102099.44;4707565;30;20461;-83
2021/12/07 13:47:39;;;;;;;3.50;2.17;;;;;;;17.54;nan;102095.19;4717421;30;20524;-83
2021/12/07 13:50:23;;;;;;;7.67;4.47;;;;;;;17.50;nan;102082.84;4704136;30;20478;-83
2021/12/07 13:52:53;;;;;;;1.97;1.30;;;;;;;17.47;nan;102094.31;4717480;30;20579;-83
2021/12/07 13:55:27;;;;;;;4.03;2.23;;;;;;;17.29;nan;102082.97;4730681;30;20474;-84
2021/12/07 13:57:57;;;;;;;6.43;3.67;;;;;;;17.35;nan;102093.19;4720518;30;20913;-83
2021/12/07 14:00:30;;;;;;;2.70;1.30;;;;;;;17.43;nan;102081.97;4720167;30;20465;-84
2021/12/07 14:03:06;;;;;;;2.33;1.47;;;;;;;17.54;nan;102092.41;4702780;30;20454;-83
2021/12/07 14:05:39;;;;;;;1.20;0.90;;;;;;;17.66;nan;102082.50;4717049;30;20470;-84
2021/12/07 14:08:13;;;;;;;1.30;0.53;;;;;;;17.84;nan;102073.63;4749596;30;20459;-84
2021/12/07 14:10:49;;;;;;;1.90;0.40;;;;;;;17.86;nan;102061.28;4805802;29;20470;-84
2021/12/07 14:51:03;;;;;;;2.83;0.70;;;;;;;18.05;nan;102008.97;5219240;24;20516;-90
2021/12/07 14:53:39;;;;;;;2.07;1.23;;;;;;;18.18;nan;102006.19;4797338;29;20497;-92
2021/12/07 14:56:32;;;;;;;2.40;0.80;;;;;;;18.31;nan;102008.94;4798028;29;20456;-93
2021/12/07 14:59:07;;;;;;;1.20;0.80;;;;;;;18.33;nan;102006.81;4812199;29;20987;-93
2021/12/07 15:01:39;;;;;;;1.00;0.50;;;;;;;18.27;nan;102016.00;4809642;29;20465;-93
2021/12/07 15:04:22;;;;;;;0.97;0.40;;;;;;;18.21;nan;102003.84;4795615;29;20453;-93
2021/12/07 15:07:04;;;;;;;0.90;0.40;;;;;;;18.10;nan;102011.94;4797893;29;20460;-93
2021/12/07 15:09:51;;;;;;;2.97;0.60;;;;;;;18.00;nan;102005.97;4834148;29;20540;-93
2021/12/07 15:12:41;;;;;;;2.43;0.60;;;;;;;17.94;nan;102008.53;4833346;29;20487;-93
2021/12/07 15:15:18;;;;;;;1.10;0.50;;;;;;;17.85;nan;102004.28;4847024;29;20451;-93
2021/12/07 15:18:11;;;;;;;1.20;0.50;;;;;;;17.76;nan;102005.53;4829247;29;20453;-93
2021/12/07 15:20:47;;;;;;;1.93;0.80;;;;;;;17.68;nan;102019.56;4828501;29;20969;-93
2021/12/07 15:23:18;;;;;;;1.30;0.50;;;;;;;17.61;nan;102007.59;4828114;29;20516;-93
2021/12/07 15:25:54;;;;;;;1.93;0.60;;;;;;;17.65;nan;102017.22;4798135;29;20825;-93
2021/12/07 15:28:25;;;;;;;1.00;0.40;;;;;;;17.55;nan;102003.75;4811412;29;20468;-96
2021/12/07 15:31:23;;;;;;;1.67;0.70;;;;;;;17.49;nan;102015.66;4789428;29;20461;-95
2021/12/07 17:48:29;;;;;;;10.17;4.17;;;;;;;15.36;nan;101965.72;4860667;29;20630;-94
2021/12/07 19:55:59;;;;;;;9.93;2.20;;;;;;;15.01;nan;101942.66;4845235;29;20481;-92
2021/12/07 20:02:18;;;;;;;9.10;2.47;;;;;;;15.05;nan;101946.72;4825524;29;20440;-91
2021/12/07 20:12:13;;;;;;;8.20;1.93;;;;;;;15.09;nan;101954.41;4843559;29;20507;-93
2021/12/07 20:14:43;;;;;;;15.90;2.77;;;;;;;15.04;nan;101945.00;4815263;29;20459;-91
2021/12/07 20:18:07;;;;;;;5.70;1.90;;;;;;;15.19;nan;101965.97;4815249;29;20490;-91
2021/12/07 20:24:25;;;;;;;10.90;2.93;;;;;;;15.14;nan;101951.06;4832862;29;20432;-92
2021/12/07 20:26:58;;;;;;;13.57;2.40;;;;;;;15.14;nan;101940.91;4794319;29;20955;-92
2021/12/07 20:30:07;;;;;;;9.87;2.67;;;;;;;15.24;nan;101962.63;4797780;29;20473;-93
2021/12/07 20:39:45;;;;;;;6.60;1.57;;;;;;;15.23;nan;101962.81;4842737;29;20795;-93
2021/12/07 20:45:46;;;;;;;8.10;1.40;;;;;;;15.27;nan;101955.88;4843125;29;20597;-93
2021/12/07 20:48:15;;;;;;;8.33;1.83;;;;;;;15.28;nan;101952.91;4798498;29;20452;-94
2021/12/07 20:50:45;;;;;;;5.67;1.30;;;;;;;15.27;nan;101942.09;4797985;29;20480;-93
2021/12/07 20:53:21;;;;;;;10.13;2.80;;;;;;;15.40;nan;101961.50;4811458;29;20520;-93
2021/12/07 20:56:00;;;;;;;15.33;4.83;;;;;;;15.36;nan;101950.06;4825968;29;20823;-95
2021/12/07 20:59:18;;;;;;;16.10;7.20;;;;;;;15.42;nan;101965.78;4796801;29;20472;-95
2021/12/07 21:02:22;;;;;;;9.60;3.93;;;;;;;15.34;nan;101941.13;4794494;29;20948;-94
2021/12/07 21:08:55;;;;;;;15.93;2.43;;;;;;;15.45;nan;101959.88;4823054;29;20468;-95
2021/12/07 21:11:49;;;;;;;7.27;1.53;;;;;;;15.44;nan;101946.31;4795688;29;20845;-95
2021/12/07 21:14:26;;;;;;;10.93;1.80;;;;;;;15.38;nan;101934.19;4807927;29;20508;-94
2021/12/07 21:17:16;;;;;;;12.13;2.10;;;;;;;15.43;nan;101945.44;4793708;29;20465;-93
2021/12/07 21:19:54;;;;;;;11.40;2.67;;;;;;;15.38;nan;101938.84;4807246;29;20460;-92
2021/12/07 21:23:12;;;;;;;9.67;2.30;;;;;;;15.42;nan;101948.41;4794408;29;20457;-93
2021/12/07 21:29:39;;;;;;;9.50;2.43;;;;;;;15.31;nan;101935.16;4827291;29;20540;-94
2021/12/07 21:32:17;;;;;;;7.60;2.53;;;;;;;15.43;nan;101950.09;4811924;29;20480;-93
2021/12/07 21:38:44;;;;;;;8.17;2.07;;;;;;;15.32;nan;101945.97;4827303;29;20448;-92
2021/12/07 21:44:57;;;;;;;7.30;2.30;;;;;;;15.23;nan;101935.25;4812211;29;20909;-94
2021/12/07 21:47:56;;;;;;;7.00;1.57;;;;;;;15.34;nan;101956.81;4789500;29;21003;-94
2021/12/07 21:50:26;;;;;;;16.80;4.63;;;;;;;15.27;nan;101945.69;4799438;29;20473;-93
2021/12/07 21:53:22;;;;;;;24.53;13.40;;;;;;;15.35;nan;101958.50;4782135;29;20489;-95
2021/12/07 21:56:18;;;;;;;18.40;11.57;;;;;;;15.35;nan;101962.13;4756037;30;20629;-95
2021/12/07 21:59:22;;;;;;;16.13;10.90;;;;;;;15.37;nan;101961.94;4742762;30;20468;-94
2021/12/07 22:09:05;;;;;;;39.10;13.10;;;;;;;15.41;nan;101952.19;4788789;30;21009;-95
2021/12/07 22:18:43;;;;;;;11.97;5.10;;;;;;;15.39;nan;101935.03;4781862;30;20536;-94
2021/12/07 22:21:46;;;;;;;8.73;2.20;;;;;;;15.45;nan;101937.84;4757019;30;20950;-94
2021/12/07 22:24:51;;;;;;;15.63;2.03;;;;;;;15.51;nan;101947.22;4770678;30;20462;-94
2021/12/07 22:27:21;;;;;;;11.33;2.47;;;;;;;15.47;nan;101930.22;4809662;29;20464;-95
2021/12/07 22:29:49;;;;;;;8.10;2.00;;;;;;;15.47;nan;101923.88;4800082;29;20452;-95
2021/12/07 22:32:17;;;;;;;7.30;1.60;;;;;;;15.39;nan;101907.50;4798967;29;20460;-95
2021/12/07 22:34:46;;;;;;;13.53;2.00;;;;;;;15.43;nan;101917.03;4795818;29;20492;-96
2021/12/07 22:37:19;;;;;;;7.77;1.53;;;;;;;15.39;nan;101910.25;4796295;29;20464;-95
2021/12/07 22:39:51;;;;;;;14.23;2.80;;;;;;;15.33;nan;101888.97;4819309;29;20510;-95
2021/12/07 22:42:31;;;;;;;15.77;3.40;;;;;;;15.31;nan;101883.66;4796834;29;20464;-95
2021/12/07 22:45:55;;;;;;;15.23;2.80;;;;;;;15.34;nan;101897.06;4798706;29;20452;-94
2021/12/07 22:48:29;;;;;;;14.67;3.03;;;;;;;15.31;nan;101902.09;4829102;29;20464;-95
2021/12/07 22:50:57;;;;;;;11.67;2.23;;;;;;;15.27;nan;101895.28;4799892;29;20492;-95
2021/12/07 23:01:10;;;;;;;11.07;3.67;;;;;;;15.30;nan;101892.13;4839087;29;20436;-94
2021/12/07 23:03:47;;;;;;;21.10;5.87;;;;;;;15.40;nan;101906.41;4796125;29;20803;-94
2021/12/07 23:06:18;;;;;;;33.63;10.83;;;;;;;15.35;nan;101889.66;4796894;29;20456;-96
2021/12/07 23:16:28;;;;;;;37.93;14.80;;;;;;;15.35;nan;101864.84;4844724;29;20775;-93
2021/12/07 23:19:14;;;;;;;33.13;11.23;;;;;;;15.31;nan;101844.25;4786471;29;20815;-93
2021/12/07 23:21:55;;;;;;;13.07;3.13;;;;;;;15.36;nan;101839.88;4727616;30;20460;-93
2021/12/07 23:24:47;;;;;;;10.73;2.30;;;;;;;15.42;nan;101860.22;4738581;30;20540;-93
2021/12/07 23:27:30;;;;;;;18.43;2.07;;;;;;;15.38;nan;101856.19;4717294;30;20483;-93
2021/12/07 23:34:20;;;;;;;8.50;2.00;;;;;;;15.46;nan;101872.56;4709325;30;20509;-92
2021/12/07 23:40:36;;;;;;;16.07;2.43;;;;;;;15.36;nan;101850.03;4753131;30;20578;-91
2021/12/07 23:43:12;;;;;;;12.80;2.90;;;;;;;15.45;nan;101860.69;4764284;30;20468;-92
2021/12/07 23:45:46;;;;;;;10.97;3.10;;;;;;;15.44;nan;101852.63;4759650;30;20470;-91
2021/12/07 23:48:29;;;;;;;6.10;1.33;;;;;;;15.45;nan;101848.81;4755737;29;20830;-91
2021/12/07 23:50:58;;;;;;;12.97;1.97;;;;;;;15.46;nan;101850.53;4780833;30;21010;-92
2021/12/07 23:53:41;;;;;;;12.43;2.43;;;;;;;15.50;nan;101869.22;4744639;30;20498;-91
2021/12/07 23:56:22;;;;;;;10.57;1.83;;;;;;;15.45;nan;101854.34;4772769;30;20475;-92
2021/12/07 23:59:17;;;;;;;13.60;2.20;;;;;;;15.57;nan;101857.44;4756899;30;20475;-92
